Terminal Aerodrome Forecast
Issued by NWS Topeka, KS

Home | Current Version | Previous Version | Text Only | Print | Product List | Glossary Off
Versions: 1 2 3 4 5 6 7 8 9 10 11 12 13 14 15

413
FTUS43 KTOP 232320
TAFTOP
TAF
KTOP 232320Z 2400/2424 18008KT P6SM SKC
     FM241000 16006KT P6SM FEW250 WS020/18045KT
     FM241400 17015G29KT P6SM FEW250=

USA.gov is the U.S. government's official web portal to all federal, state and local government web resources and services.